createdAt,value
2023-02-14T00:01:23.512Z,79.14
2023-02-14T00:03:50.503Z,79.17
2023-02-14T00:06:17.632Z,79.23
2023-02-14T00:08:45.067Z,79.45
2023-02-14T00:11:12.853Z,79.36
2023-02-14T00:13:39.752Z,79.25
2023-02-14T00:16:06.962Z,79.16
2023-02-14T00:18:52.983Z,79.42
2023-02-14T00:21:19.894Z,79.45
2023-02-14T00:23:46.930Z,79.44
2023-02-14T00:26:15.150Z,79.26
2023-02-14T00:28:42.303Z,79.08
2023-02-14T00:31:09.573Z,79.02
2023-02-14T00:33:36.577Z,79.16
2023-02-14T00:36:05.067Z,79.24
2023-02-14T00:38:32.013Z,79.15
2023-02-14T00:40:59.465Z,79.22
2023-02-14T00:43:26.665Z,79.20
2023-02-14T00:45:53.639Z,79.04
2023-02-14T00:48:20.696Z,79.26
2023-02-14T00:50:47.783Z,79.39
2023-02-14T00:53:14.777Z,79.41
2023-02-14T00:55:41.768Z,79.30
2023-02-14T00:58:08.720Z,79.08
2023-02-14T01:00:35.760Z,79.23
2023-02-14T01:03:03.018Z,79.27
2023-02-14T01:05:29.976Z,79.32
2023-02-14T01:07:56.904Z,79.60
2023-02-14T01:10:23.820Z,79.41
2023-02-14T01:12:50.725Z,79.44
2023-02-14T01:15:17.697Z,79.61
2023-02-14T01:17:44.790Z,79.75
2023-02-14T01:20:11.880Z,79.66
2023-02-14T01:22:38.894Z,79.74
2023-02-14T01:25:06.021Z,79.59
2023-02-14T01:27:33.480Z,79.40
2023-02-14T01:30:00.547Z,79.66
2023-02-14T01:32:30.835Z,79.82
2023-02-14T01:34:57.741Z,79.74
2023-02-14T01:37:24.724Z,79.70
2023-02-14T01:39:51.879Z,79.75
2023-02-14T01:42:18.853Z,79.62
2023-02-14T01:44:45.891Z,79.80
2023-02-14T01:47:12.810Z,80.05
2023-02-14T01:49:41.893Z,80.05
2023-02-14T01:52:18.579Z,79.96
2023-02-14T01:54:54.037Z,79.88
2023-02-14T01:57:21.425Z,80.12
2023-02-14T01:59:54.334Z,79.77
2023-02-14T02:02:24.126Z,79.93
2023-02-14T02:04:52.888Z,80.05
2023-02-14T02:07:23.803Z,80.34
2023-02-14T02:09:56.095Z,80.16
2023-02-14T02:12:23.068Z,80.29
2023-02-14T02:14:51.094Z,79.96
2023-02-14T02:17:44.335Z,80.16
2023-02-14T02:20:45.150Z,80.06
2023-02-14T02:23:34.021Z,80.14
2023-02-14T02:26:42.151Z,80.17
2023-02-14T02:29:27.388Z,80.34
2023-02-14T02:32:28.298Z,80.37
2023-02-14T02:35:12.451Z,80.15
2023-02-14T02:38:01.254Z,80.28
2023-02-14T02:40:40.455Z,80.37
2023-02-14T02:43:22.514Z,80.27
2023-02-14T02:46:44.601Z,80.62
2023-02-14T02:49:54.243Z,80.22
2023-02-14T02:52:59.401Z,80.51
2023-02-14T02:55:51.171Z,80.53
2023-02-14T02:58:19.860Z,80.59
2023-02-14T03:00:47.652Z,80.64
2023-02-14T03:03:33.277Z,80.71
2023-02-14T03:06:00.483Z,80.55
2023-02-14T03:08:27.360Z,80.75
2023-02-14T03:10:54.586Z,80.67
2023-02-14T03:13:36.416Z,80.69
2023-02-14T03:16:26.029Z,80.86
2023-02-14T03:19:50.695Z,80.79
2023-02-14T03:22:48.893Z,81.01
2023-02-14T03:25:31.544Z,80.78
2023-02-14T03:28:25.560Z,80.79
2023-02-14T03:31:01.868Z,80.85
2023-02-14T03:34:00.665Z,80.94
2023-02-14T03:36:31.636Z,81.00
2023-02-14T03:39:16.940Z,81.13
2023-02-14T03:41:59.766Z,80.96
2023-02-14T03:44:28.531Z,80.72
2023-02-14T03:46:58.884Z,81.18
2023-02-14T03:49:29.464Z,81.17
2023-02-14T03:51:56.614Z,80.85
2023-02-14T03:54:23.525Z,81.27
2023-02-14T03:56:52.826Z,81.07
2023-02-14T03:59:22.835Z,81.00
2023-02-14T04:01:51.049Z,81.11
2023-02-14T04:04:20.448Z,81.08
2023-02-14T04:06:47.730Z,80.78
2023-02-14T04:09:14.642Z,81.19
2023-02-14T04:11:46.448Z,81.06
2023-02-14T04:14:13.577Z,80.64
2023-02-14T04:16:59.177Z,81.22
2023-02-14T04:19:26.143Z,81.05
2023-02-14T04:21:53.258Z,80.95
2023-02-14T04:24:20.402Z,81.25
2023-02-14T04:26:54.307Z,81.44
2023-02-14T04:29:21.460Z,81.20
2023-02-14T04:31:49.214Z,81.17
2023-02-14T04:34:16.221Z,81.39
2023-02-14T04:36:43.184Z,81.02
2023-02-14T04:39:10.074Z,81.20
2023-02-14T04:41:36.991Z,81.09
2023-02-14T04:44:03.941Z,80.85
2023-02-14T06:03:03.792Z,80.71
2023-02-14T06:05:30.858Z,80.94
2023-02-14T06:07:57.910Z,80.92
2023-02-14T06:10:25.963Z,80.84
2023-02-14T06:12:53.841Z,80.50
2023-02-14T06:15:21.781Z,80.80
2023-02-14T06:17:56.568Z,81.19
2023-02-14T06:20:24.507Z,80.83
2023-02-14T06:22:53.235Z,80.87
2023-02-14T06:25:21.152Z,80.89
2023-02-14T06:27:49.457Z,80.68
2023-02-14T06:30:17.957Z,80.73
2023-02-14T06:32:45.217Z,80.99
2023-02-14T06:35:13.786Z,80.84
2023-02-14T06:37:42.370Z,80.72
2023-02-14T06:40:11.841Z,80.75
2023-02-14T06:42:39.260Z,80.93
2023-02-14T06:45:07.090Z,81.25
2023-02-14T06:47:35.187Z,80.93
2023-02-14T06:50:05.229Z,80.89
2023-02-14T06:52:34.071Z,80.94
2023-02-14T06:55:01.431Z,80.86
2023-02-14T06:57:28.700Z,80.99
2023-02-14T06:59:56.076Z,80.92
2023-02-14T07:02:25.029Z,81.17
2023-02-14T07:04:52.636Z,81.27
2023-02-14T07:07:20.752Z,81.14
2023-02-14T07:09:48.158Z,81.18
2023-02-14T07:12:15.516Z,81.25
2023-02-14T07:14:44.898Z,80.85
2023-02-14T07:17:15.251Z,81.07
2023-02-14T07:19:42.622Z,81.21
2023-02-14T07:22:09.893Z,81.30
2023-02-14T07:24:37.291Z,81.14
2023-02-14T07:27:04.469Z,81.18
2023-02-14T07:29:31.627Z,81.15
2023-02-14T07:31:59.080Z,80.99
2023-02-14T07:34:27.494Z,80.95
2023-02-14T07:36:54.604Z,81.07
2023-02-14T07:39:21.801Z,80.75
2023-02-14T07:41:49.472Z,80.89
2023-02-14T07:44:16.968Z,81.11
2023-02-14T07:46:44.131Z,80.84
2023-02-14T07:49:12.105Z,81.14
2023-02-14T07:51:39.200Z,81.26
2023-02-14T07:54:06.428Z,80.96
2023-02-14T07:56:33.477Z,81.20
2023-02-14T07:59:00.548Z,81.28
2023-02-14T08:01:27.680Z,81.42
2023-02-14T08:03:54.718Z,81.47
2023-02-14T08:06:22.138Z,81.17
2023-02-14T08:08:49.497Z,81.25
2023-02-14T08:11:36.587Z,81.31
2023-02-14T08:14:05.328Z,81.29
2023-02-14T08:16:35.514Z,81.62
2023-02-14T08:19:09.868Z,81.40
2023-02-14T08:21:36.881Z,81.59
2023-02-14T08:24:04.272Z,81.87
2023-02-14T08:26:31.735Z,81.65
2023-02-14T08:28:58.873Z,81.78
2023-02-14T08:31:35.525Z,81.92
2023-02-14T08:34:03.681Z,81.81
2023-02-14T08:36:30.719Z,81.96
2023-02-14T08:38:57.956Z,82.14
2023-02-14T08:41:25.170Z,82.10
2023-02-14T08:43:52.390Z,82.22
2023-02-14T08:46:19.631Z,82.06
2023-02-14T08:48:46.718Z,82.37
2023-02-14T08:51:15.079Z,82.34
2023-02-14T08:53:43.379Z,82.51
2023-02-14T08:56:13.472Z,82.41
2023-02-14T08:58:41.142Z,82.37
2023-02-14T09:01:10.529Z,82.53
2023-02-14T09:03:38.602Z,82.60
2023-02-14T09:06:14.148Z,82.89
2023-02-14T09:08:41.777Z,82.79
2023-02-14T09:11:24.389Z,83.05
2023-02-14T09:13:56.095Z,83.11
2023-02-14T09:16:23.710Z,82.91
2023-02-14T09:18:52.730Z,82.83
2023-02-14T09:21:23.550Z,82.95
2023-02-14T09:23:50.510Z,82.69
2023-02-14T09:26:18.033Z,82.93
2023-02-14T09:28:44.993Z,82.91
2023-02-14T09:31:17.623Z,82.39
2023-02-14T09:33:45.464Z,82.60
2023-02-14T09:36:21.280Z,82.55
2023-02-14T09:38:48.212Z,82.54
2023-02-14T09:41:38.010Z,82.83
2023-02-14T09:44:08.149Z,82.71
2023-02-14T09:46:40.743Z,82.86
2023-02-14T09:49:09.296Z,82.65
2023-02-14T09:51:46.591Z,82.63
2023-02-14T09:54:14.871Z,82.40
2023-02-14T09:56:52.084Z,82.36
2023-02-14T09:59:48.584Z,82.47
2023-02-14T10:02:19.440Z,82.33
2023-02-14T10:04:52.364Z,82.34
2023-02-14T10:07:31.960Z,82.45
2023-02-14T10:09:58.795Z,82.47
2023-02-14T10:12:32.137Z,82.40
2023-02-14T10:15:00.921Z,82.34
2023-02-14T10:17:40.060Z,82.28
2023-02-14T10:20:23.392Z,82.20
2023-02-14T10:23:03.334Z,81.96
2023-02-14T10:25:44.201Z,82.17
2023-02-14T10:28:15.781Z,82.35
2023-02-14T10:30:50.100Z,82.09
2023-02-14T10:33:18.987Z,82.14
2023-02-14T10:35:49.679Z,81.89
2023-02-14T10:39:00.735Z,82.01
2023-02-14T10:41:53.367Z,81.88
2023-02-14T10:44:23.094Z,81.90
2023-02-14T10:47:05.075Z,81.79
2023-02-14T10:49:35.437Z,81.84
2023-02-14T10:52:08.381Z,81.66
2023-02-14T10:54:43.876Z,81.04
2023-02-14T10:57:27.403Z,81.52
2023-02-14T11:00:02.481Z,81.43
2023-02-14T11:02:46.288Z,81.37
2023-02-14T11:05:36.226Z,81.35
2023-02-14T11:08:14.733Z,81.19
2023-02-14T11:10:42.029Z,80.91
2023-02-14T11:13:28.970Z,80.83
2023-02-14T11:15:59.872Z,80.82
2023-02-14T11:18:35.975Z,80.96
2023-02-14T11:21:07.909Z,81.00
2023-02-14T11:23:42.819Z,80.68
2023-02-14T11:26:31.642Z,80.73
2023-02-14T11:29:06.191Z,80.50
2023-02-14T11:31:34.964Z,80.66
2023-02-14T11:34:04.995Z,80.49
2023-02-14T11:36:33.818Z,80.44
2023-02-14T11:39:30.803Z,80.32
2023-02-14T11:42:05.006Z,80.22
2023-02-14T11:44:33.421Z,80.04
2023-02-14T11:47:20.617Z,79.92
2023-02-14T11:50:01.278Z,79.74
2023-02-14T11:52:29.931Z,79.86
2023-02-14T11:54:57.957Z,79.60
2023-02-14T11:57:33.998Z,79.70
2023-02-14T12:00:01.842Z,79.78
2023-02-14T12:02:43.805Z,79.42
2023-02-14T12:05:36.905Z,79.25
2023-02-14T12:08:05.699Z,79.40
2023-02-14T12:10:35.318Z,79.03
2023-02-14T12:13:10.033Z,79.03
2023-02-14T12:15:37.847Z,78.98
2023-02-14T12:18:23.389Z,79.12
2023-02-14T12:20:59.192Z,79.32
2023-02-14T12:23:56.264Z,79.16
2023-02-14T12:26:29.013Z,79.00
2023-02-14T12:29:05.094Z,78.95
2023-02-14T12:31:32.828Z,78.81
2023-02-14T12:33:59.845Z,78.62
2023-02-14T12:36:52.644Z,78.67
2023-02-14T12:39:26.210Z,78.62
2023-02-14T12:42:02.934Z,78.53
2023-02-14T12:45:09.839Z,78.47
2023-02-14T12:47:46.933Z,78.47
2023-02-14T12:50:50.804Z,78.26
2023-02-14T12:53:36.753Z,78.26
2023-02-14T12:56:28.741Z,78.06
2023-02-14T12:59:14.115Z,78.16
2023-02-14T13:01:59.841Z,78.39
2023-02-14T13:05:09.233Z,78.26
2023-02-14T13:07:45.299Z,78.27
2023-02-14T13:10:32.588Z,78.24
2023-02-14T13:13:04.672Z,78.19
2023-02-14T13:15:31.848Z,77.92
2023-02-14T13:18:20.979Z,77.74
2023-02-14T13:20:53.556Z,77.50
2023-02-14T13:23:38.602Z,77.38
2023-02-14T13:26:08.824Z,77.08
2023-02-14T13:28:36.511Z,77.22
2023-02-14T13:31:03.968Z,77.01
2023-02-14T13:33:38.491Z,76.81
2023-02-14T13:36:10.878Z,76.37
2023-02-14T13:38:49.839Z,76.54
2023-02-14T13:41:17.682Z,76.53
2023-02-14T13:43:47.599Z,76.40
2023-02-14T13:46:16.793Z,76.16
2023-02-14T13:48:43.937Z,75.66
2023-02-14T13:51:10.960Z,75.43
2023-02-14T13:53:45.433Z,75.34
2023-02-14T13:56:12.210Z,75.42
2023-02-14T13:58:55.214Z,75.32
2023-02-14T14:01:50.308Z,75.40
2023-02-14T14:04:26.231Z,75.31
2023-02-14T14:07:05.340Z,75.36
2023-02-14T14:09:44.327Z,75.34
2023-02-14T14:12:26.504Z,75.53
2023-02-14T14:15:10.823Z,75.58
2023-02-14T14:17:39.219Z,75.53
2023-02-14T14:20:21.368Z,75.62
2023-02-14T14:22:48.541Z,75.81
2023-02-14T14:25:29.941Z,75.56
2023-02-14T14:27:56.847Z,75.89
2023-02-14T14:30:26.087Z,75.79
2023-02-14T14:32:53.069Z,75.64
2023-02-14T14:35:24.750Z,75.72
2023-02-14T14:37:58.687Z,75.81
2023-02-14T14:40:32.381Z,75.71
2023-02-14T14:43:05.885Z,75.36
2023-02-14T14:45:32.933Z,75.13
2023-02-14T14:48:00.832Z,74.88
2023-02-14T14:50:31.862Z,74.50
2023-02-14T14:53:02.923Z,74.59
2023-02-14T14:55:32.296Z,74.36
2023-02-14T14:58:03.893Z,74.41
2023-02-14T15:00:34.574Z,74.29
2023-02-14T15:03:15.062Z,74.18
2023-02-14T15:05:44.242Z,74.50
2023-02-14T15:08:14.238Z,74.25
2023-02-14T15:10:41.293Z,74.29
2023-02-14T15:13:29.848Z,74.28
2023-02-14T15:15:56.778Z,74.26
2023-02-14T15:18:23.717Z,73.94
2023-02-14T15:20:51.120Z,73.78
2023-02-14T15:23:22.624Z,73.88
2023-02-14T15:25:49.900Z,73.82
2023-02-14T15:28:34.121Z,73.68
2023-02-14T15:31:05.808Z,74.07
2023-02-14T15:33:33.592Z,73.98
2023-02-14T15:36:06.767Z,74.08
2023-02-14T15:38:35.751Z,74.34
2023-02-14T15:41:02.890Z,74.50
2023-02-14T15:43:32.118Z,74.67
2023-02-14T15:46:20.003Z,74.79
2023-02-14T15:48:46.971Z,74.76
2023-02-14T15:51:21.216Z,75.10
2023-02-14T15:54:01.606Z,75.08
2023-02-14T15:56:30.446Z,75.33
2023-02-14T15:59:20.880Z,75.46
2023-02-14T16:02:01.405Z,75.55
2023-02-14T16:04:30.566Z,75.71
2023-02-14T16:07:21.720Z,75.99
2023-02-14T16:09:49.757Z,76.03
2023-02-14T16:12:36.789Z,76.16
2023-02-14T16:15:19.181Z,76.16
2023-02-14T16:17:46.159Z,76.28
2023-02-14T16:20:38.552Z,76.55
2023-02-14T16:23:22.059Z,76.70
2023-02-14T16:25:49.212Z,76.74
2023-02-14T16:28:16.246Z,76.71
2023-02-14T16:30:45.454Z,76.85
2023-02-14T16:33:26.076Z,76.93
2023-02-14T16:35:53.580Z,76.96
2023-02-14T16:38:22.036Z,76.85
2023-02-14T16:40:51.528Z,77.06
2023-02-14T16:43:21.970Z,77.09
2023-02-14T16:45:49.087Z,77.28
2023-02-14T16:48:16.179Z,77.19
2023-02-14T16:50:43.983Z,77.34
2023-02-14T16:53:27.859Z,77.24
2023-02-14T16:55:55.817Z,77.35
2023-02-14T16:58:24.768Z,77.21
2023-02-14T17:00:51.783Z,77.32
2023-02-14T17:03:19.313Z,77.46
2023-02-14T17:05:49.251Z,77.46
2023-02-14T17:08:16.322Z,77.35
2023-02-14T17:10:43.246Z,77.69
2023-02-14T17:13:10.167Z,77.65
2023-02-14T17:15:38.104Z,78.00
2023-02-14T17:18:08.056Z,77.61
2023-02-14T17:20:34.982Z,77.92
2023-02-14T17:23:01.997Z,77.78
2023-02-14T17:25:29.084Z,77.88
2023-02-14T17:27:56.562Z,77.64
2023-02-14T17:30:23.829Z,77.80
2023-02-14T17:32:50.916Z,77.72
2023-02-14T17:35:19.016Z,77.77
2023-02-14T17:37:45.958Z,77.97
2023-02-14T17:40:13.395Z,77.90
2023-02-14T17:42:41.078Z,77.79
2023-02-14T17:45:11.958Z,77.73
2023-02-14T17:47:39.944Z,78.15
2023-02-14T17:50:07.707Z,77.88
2023-02-14T17:52:34.673Z,77.72
2023-02-14T17:55:01.640Z,78.07
2023-02-14T17:57:28.519Z,78.05
2023-02-14T17:59:55.532Z,78.14
2023-02-14T18:02:22.532Z,78.09
2023-02-14T18:04:49.435Z,77.98
2023-02-14T18:07:16.635Z,78.19
2023-02-14T18:09:43.532Z,78.23
2023-02-14T18:12:14.779Z,78.08
2023-02-14T18:14:42.311Z,78.11
2023-02-14T18:17:09.443Z,78.28
2023-02-14T18:19:36.697Z,78.18
2023-02-14T18:22:03.622Z,78.24
2023-02-14T18:24:30.535Z,78.10
2023-02-14T18:26:57.502Z,78.25
2023-02-14T18:29:24.570Z,77.95
2023-02-14T18:31:51.686Z,78.09
2023-02-14T18:34:19.078Z,78.35
2023-02-14T18:36:46.103Z,78.15
2023-02-14T18:39:13.031Z,78.47
2023-02-14T18:41:39.963Z,78.24
2023-02-14T18:44:07.324Z,78.32
2023-02-14T18:46:35.702Z,78.34
2023-02-14T18:49:04.535Z,78.51
2023-02-14T18:51:33.713Z,78.42
2023-02-14T18:54:04.649Z,78.20
2023-02-14T18:56:33.427Z,78.29
2023-02-14T18:59:02.349Z,78.52
2023-02-14T19:01:31.578Z,78.29
2023-02-14T19:04:01.571Z,78.59
2023-02-14T19:06:30.052Z,78.37
2023-02-14T19:08:57.445Z,78.49
2023-02-14T19:11:26.245Z,78.50
2023-02-14T19:13:57.758Z,78.71
2023-02-14T19:16:27.234Z,78.65
2023-02-14T19:18:54.592Z,78.59
2023-02-14T19:21:26.823Z,78.76
2023-02-14T19:23:55.001Z,78.62
2023-02-14T19:26:24.424Z,78.59
2023-02-14T19:28:55.633Z,78.43
2023-02-14T19:31:22.795Z,78.76
2023-02-14T19:33:50.282Z,78.58
2023-02-14T19:36:18.884Z,78.73
2023-02-14T19:38:50.259Z,78.87
2023-02-14T19:41:30.595Z,78.73
2023-02-14T19:43:58.414Z,78.70
2023-02-14T19:46:25.739Z,78.42
2023-02-14T19:48:52.664Z,78.48
2023-02-14T19:51:25.854Z,78.61
2023-02-14T19:53:53.882Z,78.79
2023-02-14T19:56:21.604Z,78.61
2023-02-14T19:58:49.685Z,78.92
2023-02-14T20:01:30.127Z,78.60
2023-02-14T20:03:57.155Z,78.80
2023-02-14T20:06:25.132Z,78.55
2023-02-14T20:08:52.188Z,78.56
2023-02-14T20:11:42.431Z,78.91
2023-02-14T20:14:09.714Z,78.70
2023-02-14T20:16:37.356Z,78.83
2023-02-14T20:19:12.043Z,78.63
2023-02-14T20:21:41.926Z,78.56
2023-02-14T20:24:09.269Z,78.63
2023-02-14T20:26:37.442Z,78.41
2023-02-14T20:29:05.107Z,78.62
2023-02-14T20:31:35.221Z,78.64
2023-02-14T20:34:02.550Z,78.56
2023-02-14T20:36:29.624Z,78.67
2023-02-14T20:38:57.267Z,78.40
2023-02-14T20:41:24.607Z,78.47
2023-02-14T20:43:51.765Z,78.67
2023-02-14T20:46:19.110Z,78.59
2023-02-14T20:48:46.067Z,78.67
2023-02-14T20:51:18.504Z,78.39
2023-02-14T20:53:45.859Z,78.40
2023-02-14T20:56:13.844Z,78.40
2023-02-14T20:58:41.890Z,78.34
2023-02-14T21:01:15.614Z,78.58
2023-02-14T21:03:43.616Z,78.66
2023-02-14T21:06:13.811Z,78.41
2023-02-14T21:08:44.489Z,78.35
2023-02-14T21:11:13.475Z,78.52
2023-02-14T21:13:40.642Z,78.25
2023-02-14T21:16:09.645Z,78.25
2023-02-14T21:18:37.878Z,78.33
2023-02-14T21:21:36.168Z,78.28
2023-02-14T21:24:14.731Z,78.27
2023-02-14T21:26:42.201Z,77.94
2023-02-14T21:29:09.453Z,78.05
2023-02-14T21:31:36.724Z,78.36
2023-02-14T21:34:04.893Z,78.04
2023-02-14T21:36:33.066Z,78.35
2023-02-14T21:39:00.152Z,78.11
2023-02-14T21:41:28.914Z,78.29
2023-02-14T21:43:56.586Z,77.95
2023-02-14T21:46:29.462Z,77.83
2023-02-14T21:49:19.722Z,78.03
2023-02-14T21:51:46.996Z,77.83
2023-02-14T21:54:14.455Z,77.98
2023-02-14T21:56:44.671Z,77.96
2023-02-14T21:59:12.352Z,77.98
2023-02-14T22:01:42.225Z,77.70
2023-02-14T22:04:11.775Z,77.87
2023-02-14T22:06:41.794Z,77.87
2023-02-14T22:09:10.895Z,77.96
2023-02-14T22:11:38.246Z,77.79
2023-02-14T22:14:05.214Z,77.80
2023-02-14T22:16:32.102Z,77.66
2023-02-14T22:18:59.097Z,77.65
2023-02-14T22:21:26.784Z,77.85
2023-02-14T22:23:54.517Z,77.98
2023-02-14T22:26:25.875Z,77.97
2023-02-14T22:28:56.925Z,77.91
2023-02-14T22:31:24.759Z,77.97
2023-02-14T22:33:51.806Z,77.92
2023-02-14T22:36:19.186Z,77.87
2023-02-14T22:38:46.120Z,78.01
2023-02-14T22:41:21.129Z,78.07
2023-02-14T22:43:48.738Z,78.15
2023-02-14T22:46:19.816Z,78.14
2023-02-14T22:48:48.147Z,78.11
2023-02-14T22:51:26.345Z,78.17
2023-02-14T22:53:57.172Z,78.06
2023-02-14T22:56:28.976Z,78.22
2023-02-14T22:59:01.078Z,78.28
2023-02-14T23:01:28.484Z,78.05
2023-02-14T23:03:56.853Z,78.46
2023-02-14T23:06:25.008Z,78.24
2023-02-14T23:08:52.305Z,78.34
2023-02-14T23:11:24.092Z,78.16
2023-02-14T23:14:09.639Z,78.25
2023-02-14T23:16:54.928Z,78.42
2023-02-14T23:19:43.027Z,78.42
2023-02-14T23:22:14.283Z,78.34
2023-02-14T23:24:41.860Z,78.40
2023-02-14T23:27:09.300Z,78.38
2023-02-14T23:29:36.705Z,78.29
2023-02-14T23:32:05.044Z,78.57
2023-02-14T23:34:33.618Z,78.81
2023-02-14T23:37:00.660Z,78.45
2023-02-14T23:39:27.613Z,78.65
2023-02-14T23:41:55.297Z,78.62
2023-02-14T23:44:23.852Z,78.86
2023-02-14T23:46:52.809Z,78.59
2023-02-14T23:49:19.962Z,78.82
2023-02-14T23:51:47.750Z,78.96
2023-02-14T23:54:15.053Z,79.08
2023-02-14T23:56:42.460Z,79.01
2023-02-14T23:59:09.847Z,79.07
